Time;durP1;ratioP1;P1;durP2;ratioP2;P2;SDS_P1;SDS_P2;PMS_P1;PMS_P2;Temp;Humidity;BMP_temperature;BMP_pressure;BME280_temperature;BME280_humidity;BME280_pressure;Samples;Min_cycle;Max_cycle;Signal;HPM_P1;HPM_P2
2023/08/08 00:04:10;;;;;;;13.35;4.85;;;;;;;10.47;100.00;101304.81;10482565;28;20440;-75
2023/08/08 00:09:11;;;;;;;7.40;3.88;;;;;;;10.32;100.00;101297.88;10478727;28;20133;-75
2023/08/08 00:14:11;;;;;;;8.10;5.22;;;;;;;10.27;100.00;101297.63;10465995;28;20049;-75
2023/08/08 00:19:12;;;;;;;9.00;4.80;;;;;;;10.35;100.00;101299.75;10484875;28;20106;-75
2023/08/08 00:24:12;;;;;;;7.55;3.67;;;;;;;10.27;100.00;101297.63;10482004;28;20123;-75
2023/08/08 00:29:13;;;;;;;7.40;4.75;;;;;;;10.23;100.00;101293.03;10490085;28;20036;-75
2023/08/08 00:34:13;;;;;;;9.65;4.60;;;;;;;10.25;100.00;101294.00;10493597;28;20127;-75
2023/08/08 00:39:14;;;;;;;11.80;4.80;;;;;;;10.25;100.00;101304.47;10491795;28;20047;-76
2023/08/08 00:44:14;;;;;;;10.52;5.22;;;;;;;10.23;100.00;101303.50;10491233;28;20045;-75
2023/08/08 00:49:15;;;;;;;9.00;4.55;;;;;;;10.18;100.00;101310.19;10473773;28;20037;-75
2023/08/08 00:54:15;;;;;;;10.80;5.30;;;;;;;10.26;100.00;101303.66;10492338;28;20128;-75
2023/08/08 00:59:16;;;;;;;7.55;5.22;;;;;;;10.22;100.00;101317.38;10491835;28;20116;-75
2023/08/08 01:04:17;;;;;;;8.77;4.53;;;;;;;10.42;100.00;101304.53;10472849;28;20071;-75
2023/08/08 01:09:30;;;;;;;8.90;5.93;;;;;;;10.61;100.00;101301.25;10488282;28;20033;-76
2023/08/08 01:14:30;;;;;;;8.57;4.53;;;;;;;10.70;100.00;101290.34;10444613;28;20120;-75
2023/08/08 01:19:32;;;;;;;13.43;4.63;;;;;;;10.83;100.00;101265.75;10463180;28;20033;-75
2023/08/08 01:24:36;;;;;;;6.15;3.72;;;;;;;10.83;100.00;101274.47;10476511;28;20037;-75
2023/08/08 01:29:39;;;;;;;9.27;5.30;;;;;;;10.86;100.00;101266.78;10489906;28;20127;-76
2023/08/08 01:34:39;;;;;;;10.43;5.63;;;;;;;10.79;100.00;101267.28;10488573;28;20527;-76
2023/08/08 01:39:39;;;;;;;8.30;4.65;;;;;;;10.75;100.00;101273.16;10488125;28;20128;-75
2023/08/08 01:44:41;;;;;;;7.95;3.95;;;;;;;10.70;100.00;101287.72;10448106;28;20378;-77
2023/08/08 01:49:41;;;;;;;10.60;5.03;;;;;;;10.67;100.00;101277.09;10467562;28;20079;-75
2023/08/08 01:54:42;;;;;;;9.98;4.28;;;;;;;10.67;100.00;101277.09;10470668;28;20552;-76
2023/08/08 01:59:45;;;;;;;10.38;4.65;;;;;;;10.85;100.00;101278.06;10487309;28;20071;-76
2023/08/08 02:04:45;;;;;;;8.98;3.75;;;;;;;10.88;100.00;101266.88;10467569;28;20041;-76
2023/08/08 02:09:46;;;;;;;8.40;4.50;;;;;;;10.83;100.00;101258.78;10471058;28;20472;-76
2023/08/08 02:14:46;;;;;;;6.80;3.80;;;;;;;10.74;100.00;101255.66;10486880;28;20047;-76
2023/08/08 02:19:47;;;;;;;11.40;5.53;;;;;;;10.60;100.00;101264.50;10504842;28;20089;-76
2023/08/08 02:24:48;;;;;;;7.70;3.55;;;;;;;10.48;100.00;101256.91;10486512;28;20040;-77
2023/08/08 02:29:48;;;;;;;10.77;4.80;;;;;;;10.44;100.00;101261.03;10469897;28;20485;-76
2023/08/08 02:34:49;;;;;;;12.25;5.43;;;;;;;10.39;100.00;101262.47;10483688;28;20063;-76
2023/08/08 02:39:49;;;;;;;7.30;4.55;;;;;;;10.41;100.00;101251.34;10470777;28;20127;-76
2023/08/08 02:44:50;;;;;;;11.15;4.70;;;;;;;10.35;100.00;101247.44;10484892;28;20519;-77
2023/08/08 02:49:50;;;;;;;11.55;4.72;;;;;;;10.24;100.00;101246.84;10478899;28;20054;-77
2023/08/08 02:54:51;;;;;;;12.77;5.90;;;;;;;10.18;100.00;101239.56;10502557;28;20045;-76
2023/08/08 02:59:52;;;;;;;9.45;5.38;;;;;;;10.31;100.00;101248.06;10486001;28;20476;-76
2023/08/08 03:04:52;;;;;;;13.32;7.05;;;;;;;10.17;100.00;101250.84;10485494;28;20135;-76
2023/08/08 03:09:53;;;;;;;11.50;5.32;;;;;;;10.20;100.00;101256.22;10452480;28;20044;-77
2023/08/08 03:14:53;;;;;;;11.40;6.05;;;;;;;10.20;100.00;101257.97;10485633;28;20116;-77
2023/08/08 03:19:54;;;;;;;10.38;6.30;;;;;;;10.06;100.00;101250.25;10484574;28;20380;-77
2023/08/08 03:24:54;;;;;;;13.02;5.97;;;;;;;10.00;100.00;101242.06;10484111;28;20450;-76
2023/08/08 03:29:55;;;;;;;11.48;7.25;;;;;;;10.03;100.00;101251.78;10483412;28;20090;-76
2023/08/08 03:34:56;;;;;;;20.58;7.35;;;;;;;10.18;100.00;101244.78;10483838;28;20032;-76
2023/08/08 03:39:56;;;;;;;15.13;6.15;;;;;;;10.35;100.00;101236.97;10485841;28;20032;-77
2023/08/08 03:44:57;;;;;;;12.82;6.22;;;;;;;10.49;100.00;101254.34;10483529;28;20518;-77
2023/08/08 03:49:57;;;;;;;16.67;5.97;;;;;;;10.58;100.00;101248.72;10459003;28;20070;-77
2023/08/08 03:54:58;;;;;;;16.65;4.60;;;;;;;10.57;100.00;101239.06;10476545;28;20048;-77
2023/08/08 03:59:58;;;;;;;12.55;6.93;;;;;;;10.58;100.00;101244.38;10483376;28;20043;-76
2023/08/08 04:04:59;;;;;;;15.18;7.00;;;;;;;10.67;100.00;101230.91;10485461;28;20510;-77
2023/08/08 04:09:59;;;;;;;16.55;6.05;;;;;;;10.74;100.00;101218.13;10483196;28;20037;-76
2023/08/08 04:15:00;;;;;;;19.45;7.28;;;;;;;10.69;100.00;101218.78;10482943;28;20057;-76
2023/08/08 04:20:00;;;;;;;9.98;5.78;;;;;;;10.60;100.00;101215.69;10481367;28;20384;-76
2023/08/08 04:25:01;;;;;;;11.55;6.20;;;;;;;10.54;100.00;101213.63;10474199;28;20029;-78
2023/08/08 04:30:04;;;;;;;21.88;6.75;;;;;;;10.46;100.00;101214.03;10491955;28;20048;-78
2023/08/08 04:35:04;;;;;;;15.77;7.47;;;;;;;10.46;100.00;101219.28;10480964;28;20385;-79
2023/08/08 04:40:08;;;;;;;12.82;6.28;;;;;;;10.44;100.00;101224.41;10462133;28;20037;-80
2023/08/08 04:45:09;;;;;;;12.40;6.63;;;;;;;10.43;100.00;101218.28;10440158;28;20072;-80
2023/08/08 04:50:10;;;;;;;16.45;6.55;;;;;;;10.48;100.00;101230.72;10441900;28;20063;-80
2023/08/08 04:55:14;;;;;;;17.02;7.88;;;;;;;10.43;100.00;101220.91;10438781;28;20044;-79
2023/08/08 05:00:15;;;;;;;16.25;7.63;;;;;;;10.48;100.00;101221.16;10441016;28;20060;-78
2023/08/08 05:05:16;;;;;;;20.38;7.53;;;;;;;10.50;100.00;101216.88;10438790;28;20029;-76
2023/08/08 05:10:16;;;;;;;13.02;6.70;;;;;;;10.62;100.00;101231.44;10474082;28;20045;-77
2023/08/08 05:15:17;;;;;;;12.00;8.18;;;;;;;10.66;100.00;101229.09;10487375;28;20043;-77
2023/08/08 05:20:17;;;;;;;19.02;8.95;;;;;;;10.74;100.00;101229.47;10491078;28;20132;-77
2023/08/08 05:25:18;;;;;;;15.20;8.07;;;;;;;10.85;100.00;101230.94;10490256;28;20150;-77
2023/08/08 05:30:18;;;;;;;20.70;8.70;;;;;;;10.98;100.00;101222.03;10488919;28;20094;-77
2023/08/08 05:35:19;;;;;;;21.73;9.35;;;;;;;11.19;100.00;101221.31;10489166;28;20380;-77
2023/08/08 05:40:20;;;;;;;16.58;7.75;;;;;;;11.32;100.00;101225.44;10490815;28;20124;-76
2023/08/08 05:45:20;;;;;;;12.35;6.53;;;;;;;11.54;100.00;101218.66;10450166;28;20037;-77
2023/08/08 05:50:21;;;;;;;10.80;6.80;;;;;;;12.10;100.00;101221.34;10449243;28;20052;-76
2023/08/08 05:55:21;;;;;;;10.77;5.38;;;;;;;12.83;100.00;101201.88;10460015;28;20032;-78
2023/08/08 06:00:22;;;;;;;10.73;4.70;;;;;;;13.40;100.00;101185.00;10479128;28;20070;-77
2023/08/08 06:05:24;;;;;;;11.23;4.10;;;;;;;14.07;100.00;101156.09;10486456;28;20335;-77
2023/08/08 06:10:25;;;;;;;15.87;4.47;;;;;;;14.48;100.00;101140.03;10488191;28;20153;-78
2023/08/08 06:15:25;;;;;;;17.17;4.50;;;;;;;14.89;100.00;101131.84;10470908;28;20750;-77
2023/08/08 06:20:26;;;;;;;12.38;4.57;;;;;;;15.77;100.00;101137.28;10454791;28;20086;-77
2023/08/08 06:25:27;;;;;;;22.25;4.80;;;;;;;15.48;100.00;101147.81;10446298;28;20477;-77
2023/08/08 06:30:28;;;;;;;8.73;3.25;;;;;;;14.92;100.00;101167.09;10447217;28;20150;-76
2023/08/08 06:35:28;;;;;;;8.20;4.18;;;;;;;14.74;100.00;101182.25;10444252;28;20171;-78
2023/08/08 06:40:29;;;;;;;12.45;5.05;;;;;;;15.37;100.00;101175.59;10446504;28;20128;-79
2023/08/08 06:45:29;;;;;;;7.47;4.18;;;;;;;15.03;100.00;101177.09;10445748;28;20499;-76
2023/08/08 06:50:30;;;;;;;17.45;5.32;;;;;;;15.07;100.00;101190.44;10477304;28;20037;-77
2023/08/08 06:55:31;;;;;;;15.52;4.75;;;;;;;15.76;100.00;101184.75;10444891;28;20251;-77
2023/08/08 07:00:31;;;;;;;11.82;6.78;;;;;;;16.70;100.00;101189.28;10417664;28;20116;-76
2023/08/08 07:05:32;;;;;;;19.33;5.88;;;;;;;16.79;100.00;101188.63;10433520;28;20041;-77
2023/08/08 07:10:32;;;;;;;19.17;5.47;;;;;;;16.27;100.00;101192.50;10434902;28;20479;-76
2023/08/08 07:15:33;;;;;;;15.93;4.90;;;;;;;15.54;100.00;101194.63;10417965;28;20157;-76
2023/08/08 07:20:33;;;;;;;14.30;5.25;;;;;;;15.83;100.00;101206.09;10466187;28;20090;-76
2023/08/08 07:25:35;;;;;;;8.18;4.07;;;;;;;15.86;100.00;101190.34;10457006;28;20496;-75
2023/08/08 07:30:35;;;;;;;27.15;4.60;;;;;;;15.40;100.00;101205.63;10471348;28;20037;-75
2023/08/08 07:35:36;;;;;;;13.68;5.45;;;;;;;15.56;100.00;101200.84;10463739;28;20041;-75
2023/08/08 07:40:36;;;;;;;9.23;4.05;;;;;;;15.74;100.00;101197.00;10470193;28;20058;-75
2023/08/08 07:45:37;;;;;;;16.95;5.45;;;;;;;15.89;100.00;101193.97;10452095;28;20040;-75
2023/08/08 07:50:37;;;;;;;16.42;6.22;;;;;;;15.81;100.00;101201.63;10411277;28;20038;-75
2023/08/08 07:55:38;;;;;;;16.98;6.25;;;;;;;16.00;100.00;101197.84;10419800;28;20583;-76
2023/08/08 08:00:39;;;;;;;15.10;6.80;;;;;;;16.26;100.00;101190.72;10430189;28;20049;-75
2023/08/08 08:05:39;;;;;;;14.45;4.85;;;;;;;16.00;100.00;101196.09;10408097;28;20132;-75
2023/08/08 08:10:40;;;;;;;13.45;5.47;;;;;;;16.01;100.00;101199.63;10407456;28;20053;-75
2023/08/08 08:15:40;;;;;;;13.52;5.88;;;;;;;16.22;100.00;101195.84;10429099;28;20460;-75
2023/08/08 08:20:41;;;;;;;9.55;5.07;;;;;;;16.55;100.00;101197.66;10428288;28;20554;-75
2023/08/08 08:25:41;;;;;;;9.65;5.28;;;;;;;17.07;100.00;101195.59;10403806;28;20041;-75
2023/08/08 08:30:42;;;;;;;10.45;5.70;;;;;;;17.18;100.00;101195.88;10422862;28;20120;-75
2023/08/08 08:35:43;;;;;;;14.23;5.97;;;;;;;17.30;100.00;101193.53;10428253;28;20037;-74
2023/08/08 08:40:45;;;;;;;15.95;8.77;;;;;;;18.00;100.00;101189.00;10432029;28;20104;-75
2023/08/08 08:45:50;;;;;;;;;;;;;;;18.02;100.00;101182.91;10406473;28;20087;-75
2023/08/08 08:50:50;;;;;;;10.48;4.50;;;;;;;18.73;100.00;101187.88;10460903;28;19920;-75
2023/08/08 08:55:51;;;;;;;10.88;4.22;;;;;;;18.97;100.00;101184.78;10422758;28;20499;-75
2023/08/08 09:00:52;;;;;;;9.35;3.60;;;;;;;19.22;100.00;101188.78;10439836;28;20488;-75
2023/08/08 09:05:54;;;;;;;13.02;3.67;;;;;;;19.13;100.00;101177.09;10412616;28;20079;-75
2023/08/08 09:10:56;;;;;;;7.18;2.97;;;;;;;19.07;100.00;101191.19;10425573;28;20499;-75
2023/08/08 09:15:56;;;;;;;11.70;3.78;;;;;;;18.53;100.00;101187.47;10433061;28;20037;-75
2023/08/08 09:20:58;;;;;;;11.52;3.83;;;;;;;18.22;100.00;101192.13;10430356;28;20065;-75
2023/08/08 09:25:58;;;;;;;13.10;3.38;;;;;;;17.74;100.00;101200.78;10423883;28;20515;-75
2023/08/08 09:30:59;;;;;;;7.28;4.15;;;;;;;17.11;100.00;101196.56;10432183;28;20116;-75
2023/08/08 09:36:00;;;;;;;8.63;3.90;;;;;;;16.86;100.00;101198.53;10434244;28;20057;-75
2023/08/08 09:41:00;;;;;;;7.90;2.50;;;;;;;16.49;100.00;101194.84;10431808;28;20065;-77
2023/08/08 09:46:01;;;;;;;7.65;3.40;;;;;;;16.10;100.00;101207.81;10415257;28;20187;-76
2023/08/08 09:51:02;;;;;;;9.05;3.35;;;;;;;15.86;100.00;101214.09;10470754;28;20044;-77
2023/08/08 09:56:03;;;;;;;9.10;4.15;;;;;;;15.66;100.00;101234.59;10487179;28;20041;-75
2023/08/08 10:01:04;;;;;;;6.57;3.80;;;;;;;15.40;100.00;101236.34;10416416;28;20065;-76
2023/08/08 10:06:05;;;;;;;9.07;5.00;;;;;;;15.44;100.00;101238.25;10445049;28;20133;-75
2023/08/08 10:11:05;;;;;;;12.55;4.63;;;;;;;15.54;100.00;101232.44;10444601;28;20045;-76
2023/08/08 10:16:09;;;;;;;10.40;4.55;;;;;;;15.79;100.00;101227.94;10440569;28;20442;-75
2023/08/08 10:21:10;;;;;;;8.80;3.78;;;;;;;16.54;100.00;101209.09;10425844;28;20071;-76
2023/08/08 10:26:18;;;;;;;5.65;2.80;;;;;;;17.54;100.00;101204.69;10425630;28;20120;-76
2023/08/08 10:31:19;;;;;;;7.15;3.58;;;;;;;18.08;100.00;101198.03;10442307;28;20062;-75
2023/08/08 10:36:20;;;;;;;5.57;2.80;;;;;;;19.26;100.00;101202.97;10427534;28;20495;-77
2023/08/08 10:41:21;;;;;;;6.25;3.63;;;;;;;18.91;100.00;101200.56;10425810;28;20079;-76
2023/08/08 10:46:26;;;;;;;18.10;6.72;;;;;;;19.51;100.00;101206.06;10441088;28;20037;-76
2023/08/08 10:51:37;;;;;;;7.03;3.65;;;;;;;19.00;100.00;101203.41;10433412;28;20043;-76
2023/08/08 10:56:37;;;;;;;9.27;2.90;;;;;;;17.74;100.00;101202.50;10422293;28;20040;-78
2023/08/08 11:01:38;;;;;;;13.25;6.82;;;;;;;16.74;100.00;101202.63;10444708;28;20036;-77
2023/08/08 11:06:39;;;;;;;14.02;6.90;;;;;;;16.14;100.00;101219.41;10424257;28;20158;-77
2023/08/08 11:11:41;;;;;;;7.75;3.85;;;;;;;15.88;100.00;101215.94;10441527;28;20114;-78
2023/08/08 11:16:42;;;;;;;12.67;5.43;;;;;;;15.92;100.00;101220.47;10429315;28;20423;-78
2023/08/08 11:21:43;;;;;;;10.25;5.50;;;;;;;16.48;100.00;101215.13;10436562;28;20473;-77
2023/08/08 11:26:45;;;;;;;6.47;3.03;;;;;;;17.95;100.00;101195.94;10414419;28;20045;-78
2023/08/08 11:31:45;;;;;;;7.78;4.28;;;;;;;20.45;100.00;101171.09;10400551;28;20485;-79
2023/08/08 11:36:46;;;;;;;6.60;3.60;;;;;;;21.60;100.00;101185.47;10407648;28;20045;-79
2023/08/08 11:41:46;;;;;;;8.00;3.13;;;;;;;21.99;100.00;101187.50;10440880;28;20385;-78
2023/08/08 11:46:47;;;;;;;9.70;4.37;;;;;;;22.19;100.00;101173.41;10421028;28;20194;-79
2023/08/08 11:51:47;;;;;;;9.13;2.50;;;;;;;20.21;100.00;101178.75;10407580;28;20037;-76
2023/08/08 11:56:48;;;;;;;10.10;5.47;;;;;;;18.84;100.00;101170.41;10405881;28;20033;-79
2023/08/08 12:01:49;;;;;;;11.38;4.95;;;;;;;17.94;100.00;101179.16;10411990;28;20452;-79
2023/08/08 12:06:49;;;;;;;7.15;3.25;;;;;;;17.64;100.00;101184.63;10392086;28;20049;-77
2023/08/08 12:11:50;;;;;;;5.03;2.92;;;;;;;19.27;100.00;101169.41;10428879;28;20069;-77
2023/08/08 12:16:51;;;;;;;4.93;2.13;;;;;;;22.80;100.00;101161.16;10488989;28;21119;-77
2023/08/08 12:21:51;;;;;;;6.20;2.93;;;;;;;23.65;100.00;101162.97;10456121;28;20131;-77
2023/08/08 12:26:52;;;;;;;11.30;3.57;;;;;;;21.01;100.00;101161.06;10483971;28;20114;-77
2023/08/08 12:31:53;;;;;;;12.30;5.37;;;;;;;19.47;100.00;101162.66;10502946;28;20090;-77
2023/08/08 12:36:53;;;;;;;4.63;2.70;;;;;;;18.47;100.00;101167.94;10482586;28;20089;-76
2023/08/08 12:41:54;;;;;;;9.98;2.65;;;;;;;18.29;100.00;101167.56;10483647;28;20071;-78
2023/08/08 12:46:54;;;;;;;5.72;2.92;;;;;;;20.30;100.00;101158.47;10459014;28;20044;-78
2023/08/08 12:51:55;;;;;;;11.10;1.98;;;;;;;22.74;100.00;101153.16;10440657;28;20076;-85
2023/08/08 12:56:56;;;;;;;7.93;2.00;;;;;;;23.39;100.00;101142.53;10442068;28;20080;-80
2023/08/08 13:01:56;;;;;;;4.43;2.10;;;;;;;24.17;100.00;101129.88;10442297;28;20112;-79
2023/08/08 13:06:57;;;;;;;10.87;3.33;;;;;;;24.89;100.00;101135.69;10449788;28;20455;-77
2023/08/08 13:11:57;;;;;;;8.47;4.37;;;;;;;23.90;100.00;101141.53;10438770;28;20433;-78
2023/08/08 13:16:58;;;;;;;4.67;2.37;;;;;;;23.79;100.00;101135.31;10441968;28;20156;-79
2023/08/08 13:21:59;;;;;;;4.50;2.60;;;;;;;24.92;98.43;101145.50;10439765;28;20026;-77
2023/08/08 13:26:59;;;;;;;4.22;1.67;;;;;;;24.41;96.74;101145.78;10476803;28;20028;-77
2023/08/08 13:32:00;;;;;;;12.73;2.57;;;;;;;24.77;100.00;101147.41;10469321;28;20033;-78
2023/08/08 13:37:00;;;;;;;5.67;1.97;;;;;;;24.90;94.51;101147.31;10484382;28;20041;-77
2023/08/08 13:42:01;;;;;;;3.27;1.93;;;;;;;23.61;99.62;101166.53;10458278;28;20428;-78
2023/08/08 13:47:02;;;;;;;5.10;1.57;;;;;;;24.66;92.77;101167.03;10445755;28;20040;-78
2023/08/08 13:52:02;;;;;;;2.90;1.40;;;;;;;25.61;89.08;101160.09;10445026;28;20045;-79
2023/08/08 13:57:03;;;;;;;4.03;1.80;;;;;;;24.88;78.55;101160.69;10442844;28;20048;-76
2023/08/08 14:02:04;;;;;;;4.27;1.57;;;;;;;24.45;80.39;101164.50;10445694;28;20041;-80
2023/08/08 14:07:04;;;;;;;3.30;1.30;;;;;;;24.47;85.32;101153.78;10443677;28;20037;-78
2023/08/08 14:12:05;;;;;;;2.83;1.87;;;;;;;22.71;100.00;101162.06;10431233;28;20041;-77
2023/08/08 14:17:05;;;;;;;5.20;2.07;;;;;;;21.98;100.00;101164.41;10442745;28;20526;-76
2023/08/08 14:22:06;;;;;;;4.87;2.07;;;;;;;21.84;100.00;101183.00;10441682;28;20068;-77
2023/08/08 14:27:06;;;;;;;3.03;1.53;;;;;;;24.08;100.00;101166.44;10427506;28;20068;-79
2023/08/08 14:32:07;;;;;;;5.27;3.10;;;;;;;23.60;91.96;101160.31;10442599;28;20041;-78
2023/08/08 14:37:08;;;;;;;4.57;1.90;;;;;;;20.63;100.00;101173.94;10428784;28;20037;-79
2023/08/08 14:42:08;;;;;;;5.83;2.03;;;;;;;20.32;100.00;101170.03;10445179;28;20147;-78
2023/08/08 14:47:09;;;;;;;4.77;1.47;;;;;;;20.00;100.00;101160.78;10440758;28;20128;-80
2023/08/08 14:52:09;;;;;;;4.63;1.93;;;;;;;20.56;100.00;101171.19;10443132;28;20039;-80
2023/08/08 14:57:10;;;;;;;4.97;1.90;;;;;;;20.93;100.00;101167.19;10440178;28;20634;-79
2023/08/08 15:02:11;;;;;;;5.80;2.13;;;;;;;22.12;100.00;101167.16;10441524;28;20041;-79
2023/08/08 15:07:11;;;;;;;5.73;2.57;;;;;;;21.93;100.00;101160.84;10429327;28;20388;-80
2023/08/08 15:12:16;;;;;;;5.50;2.67;;;;;;;22.16;100.00;101165.38;10443062;28;20048;-79
2023/08/08 15:17:16;;;;;;;5.28;2.35;;;;;;;22.70;100.00;101154.94;10409028;28;20132;-79
2023/08/08 15:22:17;;;;;;;4.87;2.63;;;;;;;21.85;100.00;101163.47;10434270;28;20044;-78
2023/08/08 15:27:17;;;;;;;3.83;2.17;;;;;;;20.60;100.00;101157.06;10442859;28;20045;-79
2023/08/08 15:32:18;;;;;;;5.80;1.97;;;;;;;20.22;100.00;101167.25;10435824;28;20041;-79
2023/08/08 15:37:18;;;;;;;5.10;3.10;;;;;;;19.61;100.00;101170.81;10441513;28;20033;-79
2023/08/08 15:42:19;;;;;;;3.88;2.00;;;;;;;19.06;100.00;101170.81;10437299;28;20037;-77
2023/08/08 15:47:19;;;;;;;7.53;1.83;;;;;;;18.72;100.00;101181.66;10439488;28;20045;-78
2023/08/08 15:52:20;;;;;;;3.17;2.08;;;;;;;18.50;100.00;101188.31;10406051;28;20047;-78
2023/08/08 15:57:21;;;;;;;4.75;1.85;;;;;;;18.32;100.00;101180.88;10437879;28;20037;-78
2023/08/08 16:02:21;;;;;;;3.15;2.03;;;;;;;18.37;100.00;101178.31;10432032;28;20087;-78
2023/08/08 16:07:22;;;;;;;5.72;3.30;;;;;;;18.48;100.00;101160.88;10449912;28;20036;-78
2023/08/08 16:12:22;;;;;;;8.27;2.67;;;;;;;18.73;100.00;101148.09;10432804;28;20041;-78
2023/08/08 16:17:23;;;;;;;4.63;1.73;;;;;;;18.69;100.00;101160.38;10431440;28;20438;-78
2023/08/08 16:22:24;;;;;;;4.90;1.90;;;;;;;18.48;100.00;101171.50;10408746;28;20122;-78
2023/08/08 16:27:24;;;;;;;3.83;2.10;;;;;;;18.27;100.00;101185.16;10447966;28;20541;-78
2023/08/08 16:32:25;;;;;;;3.22;1.73;;;;;;;18.30;100.00;101177.28;10430220;28;20124;-80
2023/08/08 16:37:25;;;;;;;6.38;2.40;;;;;;;18.15;100.00;101180.53;10434846;28;20055;-78
2023/08/08 16:42:26;;;;;;;6.03;2.53;;;;;;;18.03;100.00;101165.25;10433025;28;20072;-78
2023/08/08 16:47:26;;;;;;;3.90;1.60;;;;;;;17.86;100.00;101165.72;10470616;28;20033;-78
2023/08/08 16:52:27;;;;;;;14.80;2.90;;;;;;;17.64;100.00;101166.09;10439005;28;20033;-77
2023/08/08 16:57:27;;;;;;;3.38;2.15;;;;;;;17.55;100.00;101164.16;10430150;28;20033;-77
2023/08/08 17:02:28;;;;;;;3.58;1.67;;;;;;;17.43;100.00;101160.34;10433578;28;20037;-79
2023/08/08 17:07:29;;;;;;;3.10;1.98;;;;;;;17.39;100.00;101155.84;10431718;28;20041;-79
2023/08/08 17:12:30;;;;;;;;;;;;;;;17.20;100.00;101143.03;10427836;28;20404;-78
2023/08/08 17:17:31;;;;;;;2.67;1.90;;;;;;;16.93;100.00;101147.59;10447034;28;19925;-78
2023/08/08 17:22:32;;;;;;;3.75;1.73;;;;;;;16.65;100.00;101153.91;10444620;28;20282;-79
2023/08/08 17:27:35;;;;;;;5.40;2.83;;;;;;;16.17;100.00;101153.47;10444004;28;20098;-79
2023/08/08 17:32:36;;;;;;;6.50;3.38;;;;;;;15.97;100.00;101151.13;10444984;28;20048;-79
2023/08/08 17:37:37;;;;;;;10.50;5.67;;;;;;;15.88;100.00;101153.50;10445630;28;20047;-78
2023/08/08 17:42:37;;;;;;;5.53;3.08;;;;;;;15.91;100.00;101150.03;10442587;28;20051;-78
2023/08/08 17:47:38;;;;;;;9.27;2.83;;;;;;;15.89;100.00;101154.38;10476679;28;20055;-78
2023/08/08 17:52:38;;;;;;;6.20;2.90;;;;;;;15.71;100.00;101150.28;10434314;28;20060;-78
2023/08/08 17:57:39;;;;;;;6.68;3.17;;;;;;;15.59;100.00;101149.91;10444472;28;20124;-78
2023/08/08 18:02:39;;;;;;;4.25;2.42;;;;;;;15.54;100.00;101157.69;10436916;28;20099;-79
2023/08/08 18:07:40;;;;;;;4.97;3.15;;;;;;;15.48;100.00;101175.97;10445852;28;20140;-78
2023/08/08 18:12:42;;;;;;;8.02;3.08;;;;;;;15.06;100.00;101182.47;10443590;28;20072;-78
2023/08/08 18:17:42;;;;;;;6.65;2.55;;;;;;;14.70;100.00;101211.94;10445773;28;20044;-79
2023/08/08 18:22:43;;;;;;;7.97;3.45;;;;;;;14.45;100.00;101227.72;10443797;28;20121;-77
2023/08/08 18:27:43;;;;;;;5.18;3.65;;;;;;;14.29;100.00;101230.63;10444684;28;20488;-77
2023/08/08 18:32:44;;;;;;;6.97;3.85;;;;;;;14.12;100.00;101232.59;10423555;28;20043;-78
2023/08/08 18:37:44;;;;;;;9.18;4.75;;;;;;;13.95;100.00;101239.00;10444278;28;20061;-78
2023/08/08 18:42:45;;;;;;;5.45;3.92;;;;;;;13.86;100.00;101238.63;10440072;28;20109;-78
2023/08/08 18:47:46;;;;;;;7.50;4.63;;;;;;;13.84;100.00;101228.88;10423996;28;20057;-78
2023/08/08 18:52:46;;;;;;;6.38;4.47;;;;;;;13.81;100.00;101224.41;10404267;28;20050;-78
2023/08/08 18:57:47;;;;;;;5.90;3.75;;;;;;;13.79;100.00;101208.53;10439557;28;20056;-78
2023/08/08 19:02:47;;;;;;;7.50;5.32;;;;;;;13.77;100.00;101209.31;10437399;28;21508;-78
2023/08/08 19:07:48;;;;;;;5.97;3.47;;;;;;;13.79;100.00;101211.16;10425096;28;20063;-78
2023/08/08 19:12:48;;;;;;;6.88;4.60;;;;;;;13.72;100.00;101201.22;10435451;28;20115;-77
2023/08/08 19:17:49;;;;;;;11.32;5.25;;;;;;;13.70;100.00;101215.19;10436231;28;20492;-78
2023/08/08 19:22:50;;;;;;;9.15;4.53;;;;;;;13.65;100.00;101208.00;10435058;28;20073;-78
2023/08/08 19:27:50;;;;;;;6.88;4.38;;;;;;;13.61;100.00;101211.34;10438182;28;20037;-78
2023/08/08 19:32:51;;;;;;;8.45;5.30;;;;;;;13.59;100.00;101205.13;10438282;28;20120;-78
2023/08/08 19:37:51;;;;;;;6.55;4.60;;;;;;;13.60;100.00;101208.63;10440223;28;20409;-78
2023/08/08 19:42:54;;;;;;;11.23;5.32;;;;;;;13.61;100.00;101207.78;10468675;28;20045;-78
2023/08/08 19:47:54;;;;;;;6.30;5.35;;;;;;;13.53;100.00;101202.22;10442606;28;20037;-78
2023/08/08 19:52:55;;;;;;;10.57;5.75;;;;;;;13.50;100.00;101202.09;10438593;28;20060;-78
2023/08/08 19:57:59;;;;;;;10.80;5.18;;;;;;;13.50;100.00;101207.38;10399228;28;20087;-78
2023/08/08 20:03:00;;;;;;;10.38;4.90;;;;;;;13.47;100.00;101196.72;10433329;28;20037;-77
2023/08/08 20:08:00;;;;;;;9.38;5.47;;;;;;;13.39;100.00;101187.59;10440944;28;20037;-76
2023/08/08 20:13:04;;;;;;;8.68;6.07;;;;;;;13.29;100.00;101186.28;10435544;28;20049;-75
2023/08/08 20:18:04;;;;;;;9.73;6.03;;;;;;;13.22;100.00;101177.28;10441394;28;20377;-76
2023/08/08 20:23:05;;;;;;;9.70;4.80;;;;;;;13.22;100.00;101170.28;10440146;28;20041;-76
2023/08/08 20:28:06;;;;;;;9.82;5.68;;;;;;;13.18;100.00;101168.34;10439692;28;20043;-76
2023/08/08 20:33:06;;;;;;;8.57;5.35;;;;;;;13.19;100.00;101164.88;10434204;28;20029;-76
2023/08/08 20:38:07;;;;;;;8.00;4.63;;;;;;;13.14;100.00;101155.91;10438068;28;20473;-75
2023/08/08 20:43:08;;;;;;;6.97;4.70;;;;;;;13.13;100.00;101140.97;10421682;28;20041;-76
2023/08/08 20:48:09;;;;;;;6.25;3.75;;;;;;;13.09;100.00;101118.03;10448031;28;20041;-77
2023/08/08 20:53:11;;;;;;;14.02;4.13;;;;;;;13.06;100.00;101105.69;10479205;28;20053;-77
2023/08/08 20:58:11;;;;;;;13.75;4.10;;;;;;;13.02;100.00;101110.72;10449897;28;20053;-77
2023/08/08 21:03:12;;;;;;;5.72;3.45;;;;;;;13.02;100.00;101131.75;10439582;28;20120;-76
2023/08/08 21:08:12;;;;;;;8.05;3.97;;;;;;;13.06;100.00;101131.03;10440725;28;20041;-77
2023/08/08 21:13:13;;;;;;;6.53;3.95;;;;;;;13.13;100.00;101119.97;10470337;28;20124;-77
2023/08/08 21:18:13;;;;;;;6.20;3.55;;;;;;;13.15;100.00;101104.28;10448494;28;20194;-76
2023/08/08 21:23:14;;;;;;;7.68;3.67;;;;;;;13.13;100.00;101119.97;10447580;28;20044;-75
2023/08/08 21:28:14;;;;;;;7.03;4.18;;;;;;;13.22;100.00;101101.06;10446358;28;20175;-75
2023/08/08 21:33:15;;;;;;;6.38;3.65;;;;;;;13.22;100.00;101082.66;10446811;28;20033;-77
2023/08/08 21:38:15;;;;;;;7.68;4.72;;;;;;;13.20;100.00;101089.59;10445147;28;20086;-76
2023/08/08 21:43:16;;;;;;;7.35;4.32;;;;;;;13.28;100.00;101082.91;10444337;28;20387;-77
2023/08/08 21:48:17;;;;;;;7.43;3.63;;;;;;;13.29;100.00;101084.69;10477997;28;20052;-76
2023/08/08 21:53:17;;;;;;;7.22;4.80;;;;;;;13.30;100.00;101080.31;10443787;28;20041;-76
2023/08/08 21:58:18;;;;;;;7.35;4.78;;;;;;;13.30;100.00;101065.47;10426167;28;20041;-76
2023/08/08 22:03:18;;;;;;;8.27;5.50;;;;;;;13.30;100.00;101056.66;10478778;28;20128;-76
2023/08/08 22:08:19;;;;;;;9.57;4.65;;;;;;;13.31;100.00;101045.31;10430767;28;20052;-75
2023/08/08 22:13:20;;;;;;;7.88;4.70;;;;;;;13.30;100.00;101039.19;10441738;28;20047;-76
2023/08/08 22:18:24;;;;;;;7.40;4.07;;;;;;;13.33;100.00;101027.88;10443200;28;20037;-75
2023/08/08 22:23:25;;;;;;;7.90;4.32;;;;;;;13.34;100.00;101032.28;10427564;28;20056;-77
2023/08/08 22:28:25;;;;;;;9.35;5.05;;;;;;;13.34;100.00;101032.28;10445915;28;20079;-75
2023/08/08 22:33:26;;;;;;;26.10;5.15;;;;;;;13.34;100.00;101048.06;10441858;28;20037;-77
2023/08/08 22:38:26;;;;;;;9.52;6.10;;;;;;;13.37;100.00;101037.66;10423962;28;20037;-76
2023/08/08 22:43:27;;;;;;;8.05;5.15;;;;;;;13.37;100.00;101024.53;10444573;28;20419;-77